createdAt,value
2019-02-10T03:08:20.485Z,16.8
2019-02-10T03:09:09.980Z,16.8
2019-02-10T03:10:00.428Z,16.8
2019-02-10T03:10:50.445Z,16.7
2019-02-10T03:11:40.995Z,16.7
2019-02-10T03:12:30.730Z,16.6
2019-02-10T03:13:21.041Z,16.6
2019-02-10T03:14:10.578Z,16.6
2019-02-10T03:15:01.457Z,16.5
2019-02-10T03:15:50.710Z,16.5
2019-02-10T03:16:41.557Z,16.5
2019-02-10T03:17:30.257Z,16.4
2019-02-10T03:18:21.565Z,16.4
2019-02-10T03:19:10.839Z,16.4
2019-02-10T03:20:01.829Z,16.5
2019-02-10T03:20:51.043Z,16.6
2019-02-10T03:21:41.324Z,16.6
2019-02-10T03:22:31.680Z,16.6
2019-02-10T03:23:21.482Z,16.7
2019-02-10T03:24:12.121Z,16.7
2019-02-10T03:25:01.909Z,16.8
2019-02-10T03:25:51.466Z,16.8
2019-02-10T03:26:41.924Z,16.8
2019-02-10T03:27:31.214Z,16.9
2019-02-10T03:28:22.298Z,16.9
2019-02-10T03:29:11.816Z,16.9
2019-02-10T03:30:01.866Z,16.9
2019-02-10T03:30:52.736Z,16.9
2019-02-10T03:31:42.888Z,17.1
2019-02-10T03:32:32.153Z,17.1
2019-02-10T03:33:22.920Z,17.1
2019-02-10T03:34:12.948Z,17.2
2019-02-10T03:35:02.709Z,17.1
2019-02-10T03:35:51.721Z,17.1
2019-02-10T03:36:42.661Z,17.2
2019-02-10T03:37:36.873Z,17.2
2019-02-10T03:38:22.296Z,17.2
2019-02-10T03:39:12.296Z,17.2
2019-02-10T03:40:02.626Z,17.1
2019-02-10T03:40:52.326Z,17.1
2019-02-10T03:42:32.764Z,16.9
2019-02-10T03:43:22.334Z,16.9
2019-02-10T03:44:12.220Z,16.8
2019-02-10T03:45:03.119Z,16.8
2019-02-10T03:45:52.681Z,16.7
2019-02-10T03:46:43.100Z,16.7
2019-02-10T03:47:33.756Z,16.7
2019-02-10T03:48:23.156Z,16.6
2019-02-10T03:49:12.482Z,16.7
2019-02-10T03:50:03.682Z,16.8
2019-02-10T03:50:53.297Z,16.8
2019-02-10T03:51:43.714Z,16.8
2019-02-10T03:52:32.686Z,16.8
2019-02-10T03:53:23.545Z,16.8
2019-02-10T03:54:13.303Z,16.8
2019-02-10T03:55:03.859Z,16.9
2019-02-10T03:55:53.725Z,16.9
2019-02-10T03:57:34.131Z,17.1
2019-02-10T03:58:23.585Z,17.1
2019-02-10T03:59:13.987Z,17.1
2019-02-10T04:00:03.711Z,17.1
2019-02-10T04:00:53.438Z,17.2
2019-02-10T04:01:44.601Z,17.2
2019-02-10T04:02:33.875Z,17.1
2019-02-10T04:03:24.494Z,17.1
2019-02-10T04:04:13.478Z,17.1
2019-02-10T04:05:04.739Z,17.1
2019-02-10T04:05:54.356Z,17.1
2019-02-10T04:06:44.116Z,17.1
2019-02-10T04:07:43.600Z,17.1
2019-02-10T04:08:24.205Z,17.1
2019-02-10T04:09:14.288Z,17.1
2019-02-10T04:10:04.901Z,17.1
2019-02-10T04:12:34.849Z,16.9
2019-02-10T04:13:25.416Z,16.8
2019-02-10T04:14:15.229Z,16.8
2019-02-10T04:15:04.551Z,16.7
2019-02-10T04:15:54.498Z,16.6
2019-02-10T04:16:45.118Z,16.6
2019-02-10T04:17:35.716Z,16.6
2019-02-10T04:18:25.285Z,16.6
2019-02-10T04:19:15.536Z,16.5
2019-02-10T04:20:05.726Z,16.5
2019-02-10T04:20:55.591Z,16.4
2019-02-10T04:21:45.393Z,16.4
2019-02-10T04:22:35.818Z,16.4
2019-02-10T04:23:25.585Z,16.4
2019-02-10T04:24:14.774Z,16.5
2019-02-10T04:25:05.171Z,16.6
2019-02-10T04:25:55.742Z,16.5
2019-02-10T04:26:45.577Z,16.6
2019-02-10T04:27:35.819Z,16.6
2019-02-10T04:28:25.435Z,16.5
2019-02-10T04:29:15.917Z,16.5
2019-02-10T04:30:06.607Z,16.5
2019-02-10T04:30:56.365Z,16.4
2019-02-10T04:31:46.651Z,16.4
2019-02-10T04:32:36.468Z,16.4
2019-02-10T04:33:26.846Z,16.4
2019-02-10T04:34:16.646Z,16.4
2019-02-10T04:35:06.230Z,16.4
2019-02-10T04:35:56.384Z,16.4
2019-02-10T04:36:46.175Z,16.4
2019-02-10T04:37:46.594Z,16.4
2019-02-10T04:38:25.994Z,16.4
2019-02-10T04:39:16.892Z,16.4
2019-02-10T04:40:07.244Z,16.4
2019-02-10T04:40:56.710Z,16.4
2019-02-10T04:41:46.564Z,16.5
2019-02-10T04:42:35.549Z,16.5
2019-02-10T04:43:26.103Z,16.6
2019-02-10T04:44:16.654Z,16.7
2019-02-10T04:45:06.924Z,16.6
2019-02-10T04:45:56.551Z,16.6
2019-02-10T04:46:46.272Z,16.6
2019-02-10T04:47:37.446Z,16.6
2019-02-10T04:48:26.204Z,16.6
2019-02-10T04:49:17.072Z,16.6
2019-02-10T04:50:06.869Z,16.6
2019-02-10T04:50:57.416Z,16.5
2019-02-10T04:51:46.933Z,16.4
2019-02-10T04:52:37.606Z,16.4
2019-02-10T04:53:27.886Z,16.4
2019-02-10T04:54:17.917Z,16.4
2019-02-10T04:55:07.888Z,16.4
2019-02-10T04:55:58.046Z,16.4
2019-02-10T04:56:47.912Z,16.4
2019-02-10T04:57:37.917Z,16.4
2019-02-10T04:58:27.918Z,16.4
2019-02-10T04:59:18.273Z,16.4
2019-02-10T05:00:08.344Z,16.4
2019-02-10T05:00:58.641Z,16.4
2019-02-10T05:01:47.418Z,16.5
2019-02-10T05:02:37.776Z,16.6
2019-02-10T05:03:27.138Z,16.6
2019-02-10T05:04:18.046Z,16.6
2019-02-10T05:05:08.517Z,16.5
2019-02-10T05:05:58.721Z,16.4
2019-02-10T05:06:48.115Z,16.4
2019-02-10T05:07:38.845Z,16.4
2019-02-10T05:08:28.842Z,16.4
2019-02-10T05:09:18.423Z,16.4
2019-02-10T05:10:08.606Z,16.5
2019-02-10T05:10:58.962Z,16.4
2019-02-10T05:11:49.140Z,16.4
2019-02-10T05:12:39.230Z,16.4
2019-02-10T05:13:28.669Z,16.3
2019-02-10T05:14:18.230Z,16.3
2019-02-10T05:15:09.045Z,16.4
2019-02-10T05:15:59.171Z,16.4
2019-02-10T05:16:51.359Z,16.4
2019-02-10T05:17:38.958Z,16.4
2019-02-10T05:18:29.311Z,16.4
2019-02-10T05:19:18.917Z,16.4
2019-02-10T05:20:09.826Z,16.4
2019-02-10T05:20:59.214Z,16.5
2019-02-10T05:21:48.522Z,16.5
2019-02-10T05:22:41.372Z,16.6
2019-02-10T05:23:29.674Z,16.5
2019-02-10T05:24:19.844Z,16.5
2019-02-10T05:25:10.378Z,16.4
2019-02-10T05:26:00.397Z,16.4
2019-02-10T05:26:49.644Z,16.4
2019-02-10T05:27:40.532Z,16.4
2019-02-10T05:28:30.297Z,16.4
2019-02-10T05:29:19.801Z,16.4
2019-02-10T05:30:09.977Z,16.4
2019-02-10T05:31:00.512Z,16.4
2019-02-10T05:31:50.309Z,16.4
2019-02-10T05:32:39.789Z,16.3
2019-02-10T05:33:30.215Z,16.3
2019-02-10T05:34:20.461Z,16.3
2019-02-10T05:35:10.574Z,16.4
2019-02-10T05:36:00.804Z,16.4
2019-02-10T05:36:50.082Z,16.4
2019-02-10T05:37:40.961Z,16.4
2019-02-10T05:38:30.974Z,16.5
2019-02-10T05:39:21.066Z,16.5
2019-02-10T05:40:10.560Z,16.5
2019-02-10T05:41:00.599Z,16.6
2019-02-10T05:41:51.001Z,16.6
2019-02-10T05:42:40.678Z,16.5
2019-02-10T05:43:31.135Z,16.5
2019-02-10T05:44:20.806Z,16.5
2019-02-10T05:45:11.291Z,16.5
2019-02-10T05:46:00.220Z,16.5
2019-02-10T05:46:50.799Z,16.5
2019-02-10T05:47:40.917Z,16.6
2019-02-10T05:48:31.503Z,16.5
2019-02-10T05:49:20.963Z,16.4
2019-02-10T05:50:11.764Z,16.4
2019-02-10T05:51:01.313Z,16.4
2019-02-10T05:51:51.375Z,16.4
2019-02-10T05:52:41.702Z,16.4
2019-02-10T05:53:32.003Z,16.4
2019-02-10T05:54:22.065Z,16.4
2019-02-10T05:55:11.650Z,16.4
2019-02-10T05:56:02.463Z,16.4
2019-02-10T05:56:52.338Z,16.4
2019-02-10T05:57:42.550Z,16.4
2019-02-10T05:58:31.211Z,16.4
2019-02-10T05:59:22.118Z,16.4
2019-02-10T06:00:12.602Z,16.4
2019-02-10T06:01:01.729Z,16.4
2019-02-10T06:01:52.561Z,16.4
2019-02-10T06:02:42.889Z,16.4
2019-02-10T06:03:32.725Z,16.4
2019-02-10T06:06:20.908Z,16.3
2019-02-10T06:07:10.798Z,16.2
2019-02-10T06:08:00.451Z,16.1
2019-02-10T06:08:50.282Z,16
2019-02-10T06:09:38.778Z,16
2019-02-10T06:10:31.147Z,16
2019-02-10T06:11:20.388Z,16.1
2019-02-10T06:12:10.525Z,16.1
2019-02-10T06:13:00.806Z,16.1
2019-02-10T06:13:50.094Z,16.1
2019-02-10T06:14:40.934Z,16.2
2019-02-10T06:15:31.095Z,16.3
2019-02-10T06:16:20.529Z,16.3
2019-02-10T06:17:25.414Z,16.3
2019-02-10T06:18:01.151Z,16.4
2019-02-10T06:18:51.245Z,16.4
2019-02-10T06:19:41.647Z,16.4
2019-02-10T06:20:30.669Z,16.4
2019-02-10T06:21:22.530Z,16.4
2019-02-10T06:22:25.295Z,16.4
2019-02-10T06:23:15.531Z,16.4
2019-02-10T06:23:49.918Z,16.5
2019-02-10T06:24:41.093Z,16.5
2019-02-10T06:25:31.381Z,16.5
2019-02-10T06:26:23.183Z,16.5
2019-02-10T06:27:11.622Z,16.4
2019-02-10T06:28:02.232Z,16.4
2019-02-10T06:28:50.306Z,16.4
2019-02-10T06:29:41.452Z,16.4
2019-02-10T06:30:31.478Z,16.4
2019-02-10T06:31:21.840Z,16.3
2019-02-10T06:32:11.658Z,16.3
2019-02-10T06:33:01.716Z,16.3
2019-02-10T06:33:51.160Z,16.2
2019-02-10T06:34:41.495Z,16.1
2019-02-10T06:35:31.685Z,16.1
2019-02-10T06:36:23.966Z,16
2019-02-10T06:37:11.258Z,16
2019-02-10T06:38:01.243Z,16
2019-02-10T06:38:52.127Z,16
2019-02-10T06:39:43.060Z,16
2019-02-10T06:40:31.145Z,16
2019-02-10T06:41:22.778Z,16
2019-02-10T06:42:12.012Z,16
2019-02-10T06:43:02.073Z,16
2019-02-10T06:43:52.640Z,16
2019-02-10T06:44:41.919Z,16
2019-02-10T06:45:33.049Z,16.1
2019-02-10T06:46:22.469Z,16.1
2019-02-10T06:47:11.850Z,16.1
2019-02-10T06:48:03.480Z,16.1
2019-02-10T06:48:51.969Z,16.1
2019-02-10T06:49:42.829Z,16.1
2019-02-10T06:50:33.399Z,16.1
2019-02-10T06:51:22.357Z,16.2
2019-02-10T06:52:13.229Z,16.2
2019-02-10T06:53:02.484Z,16.2
2019-02-10T06:53:53.079Z,16.2
2019-02-10T06:54:43.176Z,16.2
2019-02-10T06:55:32.906Z,16.2
2019-02-10T06:56:23.244Z,16.2
2019-02-10T06:57:13.586Z,16.2
2019-02-10T06:58:02.792Z,16.1
2019-02-10T06:58:54.205Z,16.1
2019-02-10T06:59:43.479Z,16
2019-02-10T07:00:33.856Z,15.9
2019-02-10T07:01:23.058Z,15.9
2019-02-10T07:02:13.388Z,15.9
2019-02-10T07:03:03.512Z,15.8
2019-02-10T07:03:53.767Z,15.8
2019-02-10T07:06:18.968Z,15.8
2019-02-10T07:07:10.446Z,15.9
2019-02-10T07:07:59.103Z,15.9
2019-02-10T07:08:50.023Z,15.9
2019-02-10T07:09:40.024Z,15.9
2019-02-10T07:10:29.791Z,16
2019-02-10T07:11:19.345Z,16
2019-02-10T07:12:10.187Z,16.1
2019-02-10T07:13:00.243Z,16.1
2019-02-10T07:13:50.548Z,16.1
2019-02-10T07:14:41.003Z,16
2019-02-10T07:15:30.462Z,16.1
2019-02-10T07:16:20.763Z,16.1
2019-02-10T07:17:10.300Z,16.1
2019-02-10T07:18:00.565Z,16.2
2019-02-10T07:18:50.380Z,16.2
2019-02-10T07:19:40.180Z,16.2
2019-02-10T07:20:30.822Z,16.2
2019-02-10T07:21:20.875Z,16.2
2019-02-10T07:22:10.589Z,16.1
2019-02-10T07:23:00.974Z,16.1
2019-02-10T07:23:51.588Z,16.1
2019-02-10T07:24:40.550Z,16
2019-02-10T07:25:31.360Z,15.9
2019-02-10T07:26:20.620Z,15.9
2019-02-10T07:27:11.497Z,15.9
2019-02-10T07:28:01.527Z,15.9
2019-02-10T07:28:51.885Z,15.9
2019-02-10T07:29:41.672Z,15.9
2019-02-10T07:30:31.461Z,15.9
2019-02-10T07:31:22.104Z,15.9
2019-02-10T07:32:10.825Z,15.9
2019-02-10T07:33:01.635Z,15.9
2019-02-10T07:33:51.698Z,16
2019-02-10T07:34:50.579Z,16
2019-02-10T07:35:31.643Z,16
2019-02-10T07:36:21.640Z,16.1
2019-02-10T07:37:12.253Z,16
2019-02-10T07:38:02.871Z,16
2019-02-10T07:38:52.289Z,16
2019-02-10T07:39:42.101Z,16.1
2019-02-10T07:40:31.573Z,16.1
2019-02-10T07:41:21.975Z,16.1
2019-02-10T07:42:11.506Z,16.1
2019-02-10T07:43:01.501Z,16.1
2019-02-10T07:43:52.243Z,16.1
2019-02-10T07:44:41.866Z,16.1
2019-02-10T07:45:32.251Z,16.1
2019-02-10T07:46:22.601Z,16.1
2019-02-10T07:47:12.323Z,16.1
2019-02-10T07:48:04.126Z,16
2019-02-10T07:48:52.818Z,15.9
2019-02-10T07:49:42.570Z,15.9
2019-02-10T07:50:32.905Z,15.9
2019-02-10T07:51:23.465Z,15.8
2019-02-10T07:52:12.178Z,15.8
2019-02-10T07:53:02.338Z,15.8
2019-02-10T07:53:51.190Z,15.8
2019-02-10T07:54:50.653Z,15.8
2019-02-10T07:55:32.131Z,15.8
2019-02-10T07:56:23.810Z,15.7
2019-02-10T07:57:13.122Z,15.8
2019-02-10T07:58:02.130Z,15.7
2019-02-10T07:58:52.930Z,15.7
2019-02-10T07:59:43.798Z,15.8
2019-02-10T08:00:33.351Z,15.8
2019-02-10T08:01:23.122Z,15.8
2019-02-10T08:02:13.639Z,15.9
2019-02-10T08:03:02.934Z,15.9
2019-02-10T08:03:53.270Z,15.9
2019-02-10T08:04:43.877Z,15.9
2019-02-10T08:05:33.667Z,16.1
2019-02-10T08:06:22.689Z,16.1
2019-02-10T08:07:15.942Z,16.1
2019-02-10T08:08:03.661Z,16.1
2019-02-10T08:08:56.582Z,16.1
2019-02-10T08:09:44.202Z,16.1
2019-02-10T08:10:33.979Z,16.1
2019-02-10T08:11:23.209Z,16.1
2019-02-10T08:12:14.317Z,16
2019-02-10T08:13:04.415Z,15.9
2019-02-10T08:13:54.446Z,15.9
2019-02-10T08:14:44.806Z,15.9
2019-02-10T08:15:33.537Z,15.9
2019-02-10T08:16:24.896Z,15.8
2019-02-10T08:17:14.409Z,15.8
2019-02-10T08:18:03.646Z,15.8
2019-02-10T08:18:55.079Z,15.8
2019-02-10T08:19:45.476Z,15.8
2019-02-10T08:20:35.471Z,15.7
2019-02-10T08:21:26.041Z,15.8
2019-02-10T08:22:15.606Z,15.8
2019-02-10T08:23:04.804Z,15.9
2019-02-10T08:23:55.138Z,15.9
2019-02-10T08:24:44.153Z,15.9
2019-02-10T08:25:35.951Z,15.9
2019-02-10T08:26:25.651Z,16
2019-02-10T08:27:15.661Z,16
2019-02-10T08:28:05.541Z,15.9
2019-02-10T08:28:55.373Z,16
2019-02-10T08:29:47.688Z,16
2019-02-10T08:30:35.053Z,16.1
2019-02-10T08:31:25.152Z,16.1
2019-02-10T08:32:15.797Z,16.1
2019-02-10T08:33:04.468Z,16.1
2019-02-10T08:33:57.748Z,16.1
2019-02-10T08:34:44.870Z,16
2019-02-10T08:35:37.000Z,16
2019-02-10T08:36:26.290Z,15.9
2019-02-10T08:37:16.367Z,15.9
2019-02-10T08:38:05.877Z,15.9
2019-02-10T08:39:03.640Z,15.9
2019-02-10T08:39:45.952Z,15.8
2019-02-10T08:40:35.618Z,15.8
2019-02-10T08:41:26.659Z,15.8
2019-02-10T08:42:15.582Z,15.8
2019-02-10T08:43:06.810Z,15.7
2019-02-10T08:43:55.777Z,15.7
2019-02-10T08:44:46.092Z,15.7
2019-02-10T08:45:36.360Z,15.7
2019-02-10T08:46:26.972Z,15.8
2019-02-10T08:47:17.042Z,15.8
2019-02-10T08:48:07.707Z,15.8
2019-02-10T08:48:56.897Z,15.8
2019-02-10T08:49:47.164Z,15.9
2019-02-10T08:50:36.474Z,15.9
2019-02-10T08:51:26.796Z,16
2019-02-10T08:52:16.831Z,16
2019-02-10T08:53:06.439Z,16.1
2019-02-10T08:53:57.224Z,16.1
2019-02-10T08:54:47.614Z,16.1
2019-02-10T08:55:37.204Z,16.1
2019-02-10T08:56:27.222Z,16.1
2019-02-10T08:57:18.031Z,16.1
2019-02-10T08:58:06.786Z,16
2019-02-10T08:58:56.831Z,15.9
2019-02-10T08:59:47.174Z,15.9
2019-02-10T09:00:37.478Z,15.9
2019-02-10T09:01:26.964Z,15.9
2019-02-10T09:02:17.889Z,15.9
2019-02-10T09:03:08.496Z,15.9
2019-02-10T09:03:57.728Z,16
2019-02-10T09:04:48.346Z,16.1
2019-02-10T09:05:37.513Z,16
2019-02-10T09:06:27.090Z,16
2019-02-10T09:07:20.460Z,16
2019-02-10T09:08:08.554Z,16.1
2019-02-10T09:09:06.468Z,16.1
2019-02-10T09:09:47.833Z,16.2
2019-02-10T09:10:38.557Z,16.2
2019-02-10T09:11:28.025Z,16.3
2019-02-10T09:12:18.860Z,16.3
2019-02-10T09:13:08.860Z,16.3
2019-02-10T09:13:58.413Z,16.2
2019-02-10T09:14:48.437Z,16.2
2019-02-10T09:15:38.993Z,16.2
2019-02-10T09:16:28.310Z,16.2
2019-02-10T09:17:18.864Z,16.1
2019-02-10T09:18:09.002Z,16.1
2019-02-10T09:18:58.995Z,16.1
2019-02-10T09:19:49.321Z,16
2019-02-10T09:20:38.539Z,15.9
2019-02-10T09:21:28.893Z,15.9
2019-02-10T09:22:19.477Z,15.9
2019-02-10T09:23:09.537Z,15.9
2019-02-10T09:23:59.862Z,15.9
2019-02-10T09:24:48.819Z,15.9
2019-02-10T09:25:39.478Z,15.9
2019-02-10T09:26:29.737Z,16
2019-02-10T09:27:19.520Z,16.1
2019-02-10T09:28:08.757Z,16.1
2019-02-10T09:29:00.225Z,16
2019-02-10T09:29:49.532Z,16
2019-02-10T09:30:38.949Z,16
2019-02-10T09:31:30.417Z,16.1
2019-02-10T09:32:19.909Z,16.1
2019-02-10T09:33:09.969Z,16.1
2019-02-10T09:33:59.744Z,16.1
2019-02-10T09:34:49.054Z,16.1
2019-02-10T09:35:39.579Z,16.1
2019-02-10T09:36:30.789Z,16.1
2019-02-10T09:37:20.026Z,16.1
2019-02-10T09:38:10.314Z,16.1
2019-02-10T09:39:00.414Z,16.1
2019-02-10T09:39:50.171Z,16.1
2019-02-10T09:40:41.056Z,16.1
2019-02-10T09:41:30.536Z,16
2019-02-10T09:42:20.341Z,15.9
2019-02-10T09:43:10.419Z,15.9
2019-02-10T09:44:00.498Z,15.9
2019-02-10T09:44:50.503Z,15.9
2019-02-10T09:45:40.833Z,15.9
2019-02-10T09:46:31.791Z,15.9
2019-02-10T09:47:20.708Z,16
2019-02-10T09:48:11.306Z,16
2019-02-10T09:49:01.041Z,16.1
2019-02-10T09:49:51.174Z,16.1
2019-02-10T09:50:41.191Z,16.2
2019-02-10T09:51:32.058Z,16.1
2019-02-10T09:52:20.440Z,16.1
2019-02-10T09:53:10.055Z,16.1
2019-02-10T09:54:01.164Z,16.1
2019-02-10T09:54:51.450Z,16.2
2019-02-10T09:55:42.075Z,16.3
2019-02-10T09:56:32.178Z,16.3
2019-02-10T09:57:21.365Z,16.3
2019-02-10T09:58:11.407Z,16.3
2019-02-10T09:59:01.757Z,16.3
2019-02-10T09:59:52.081Z,16.3
2019-02-10T10:00:42.157Z,16.3
2019-02-10T10:01:31.982Z,16.3
2019-02-10T10:02:22.630Z,16.3
2019-02-10T10:03:12.892Z,16.2
2019-02-10T10:04:02.201Z,16.2
2019-02-10T10:04:52.449Z,16.2
2019-02-10T10:07:20.302Z,16.1
2019-02-10T10:08:10.317Z,16.1
2019-02-10T10:09:00.354Z,16.1
2019-02-10T10:09:50.147Z,16.1
2019-02-10T10:10:39.945Z,16.1
2019-02-10T10:11:30.244Z,16.1
2019-02-10T10:12:20.102Z,16.1
2019-02-10T10:13:10.469Z,16.2
2019-02-10T10:13:59.869Z,16.2
2019-02-10T10:14:49.946Z,16.1
2019-02-10T10:15:41.154Z,16
2019-02-10T10:16:30.896Z,16.1
2019-02-10T10:17:20.651Z,16.1
2019-02-10T10:18:10.446Z,16.3
2019-02-10T10:19:00.558Z,16.3
2019-02-10T10:19:50.539Z,16.3
2019-02-10T10:20:41.199Z,16.3
2019-02-10T10:21:30.703Z,16.3
2019-02-10T10:22:21.276Z,16.3
2019-02-10T10:23:10.257Z,16.3
2019-02-10T10:24:01.158Z,16.3
2019-02-10T10:25:01.198Z,16.3
2019-02-10T10:25:40.940Z,16.2
2019-02-10T10:26:31.366Z,16.1
2019-02-10T10:27:21.634Z,16.1
2019-02-10T10:28:11.996Z,16.1
2019-02-10T10:29:01.838Z,16.1
2019-02-10T10:29:52.068Z,16
2019-02-10T10:30:41.568Z,16
2019-02-10T10:31:32.193Z,16
2019-02-10T10:32:22.028Z,16.1
2019-02-10T10:33:11.737Z,16.1
2019-02-10T10:34:01.333Z,16.2
2019-02-10T10:34:51.890Z,16.3
2019-02-10T10:35:41.926Z,16.4
2019-02-10T10:36:32.574Z,16.3
2019-02-10T10:37:22.724Z,16.3
2019-02-10T10:38:12.108Z,16.2
2019-02-10T10:39:02.158Z,16.3
2019-02-10T10:39:54.065Z,16.3
2019-02-10T10:40:42.414Z,16.4
2019-02-10T10:41:32.940Z,16.4
2019-02-10T10:42:22.413Z,16.4
2019-02-10T10:43:12.779Z,16.4
2019-02-10T10:44:03.101Z,16.4
2019-02-10T10:44:53.123Z,16.4
2019-02-10T10:45:42.887Z,16.4
2019-02-10T10:46:32.681Z,16.4
2019-02-10T10:47:23.001Z,16.4
2019-02-10T10:48:12.793Z,16.4
2019-02-10T10:49:03.138Z,16.3
2019-02-10T10:49:52.981Z,16.3
2019-02-10T10:50:43.526Z,16.2
2019-02-10T10:51:33.285Z,16.1
2019-02-10T10:52:23.113Z,16.1
2019-02-10T10:53:12.681Z,16.1
2019-02-10T10:54:03.242Z,16.1
2019-02-10T10:54:53.523Z,16.1
2019-02-10T10:55:43.324Z,16.1
2019-02-10T10:56:33.182Z,16.1
2019-02-10T10:57:28.112Z,16.1
2019-02-10T10:58:13.778Z,16.2
2019-02-10T10:59:04.104Z,16.1
2019-02-10T10:59:54.135Z,16.1
2019-02-10T11:00:43.660Z,16.1
2019-02-10T11:01:35.817Z,16.2
2019-02-10T11:02:24.315Z,16.3
2019-02-10T11:03:13.619Z,16.4
2019-02-10T11:04:04.159Z,16.4
2019-02-10T11:04:54.520Z,16.4
2019-02-10T11:05:44.019Z,16.4
2019-02-10T11:06:36.422Z,16.4
2019-02-10T11:07:23.959Z,16.4
2019-02-10T11:08:13.647Z,16.4
2019-02-10T11:09:04.597Z,16.3
2019-02-10T11:09:54.567Z,16.3
2019-02-10T11:10:44.645Z,16.3
2019-02-10T11:11:34.744Z,16.3
2019-02-10T11:12:23.994Z,16.2
2019-02-10T11:13:14.580Z,16.1
2019-02-10T11:14:04.574Z,16.1
2019-02-10T11:14:54.913Z,16.1
2019-02-10T11:15:44.224Z,16.1
2019-02-10T11:16:34.949Z,16.1
2019-02-10T11:17:24.559Z,16.1
2019-02-10T11:18:14.349Z,16.1
2019-02-10T11:19:04.481Z,16.2
2019-02-10T11:19:55.066Z,16.3
2019-02-10T11:20:45.111Z,16.3
2019-02-10T11:21:34.111Z,16.3
2019-02-10T11:22:24.125Z,16.3
2019-02-10T11:23:14.749Z,16.1
2019-02-10T11:24:05.573Z,16.2
2019-02-10T11:24:55.414Z,16.3
2019-02-10T11:25:44.993Z,16.3
2019-02-10T11:26:35.538Z,16.4
2019-02-10T11:27:25.378Z,16.4
2019-02-10T11:28:15.055Z,16.4
2019-02-10T11:29:05.151Z,16.4
2019-02-10T11:29:55.183Z,16.5
2019-02-10T11:30:45.580Z,16.5
2019-02-10T11:31:35.658Z,16.4
2019-02-10T11:32:25.705Z,16.4
2019-02-10T11:33:15.461Z,16.4
2019-02-10T11:34:06.043Z,16.4
2019-02-10T11:34:54.428Z,16.4
2019-02-10T11:35:45.642Z,16.3
2019-02-10T11:36:36.253Z,16.3
2019-02-10T11:37:35.712Z,16.3
2019-02-10T11:38:15.875Z,16.2
2019-02-10T11:39:05.635Z,16.3
2019-02-10T11:39:56.481Z,16.3
2019-02-10T11:40:45.928Z,16.2
2019-02-10T11:41:36.295Z,16.2
2019-02-10T11:42:26.632Z,16.3
2019-02-10T11:43:15.644Z,16.3
2019-02-10T11:44:05.630Z,16.4
2019-02-10T11:44:56.244Z,16.5
2019-02-10T11:45:46.845Z,16.4
2019-02-10T11:46:36.337Z,16.3
2019-02-10T11:47:26.432Z,16.3
2019-02-10T11:48:17.335Z,16.3
2019-02-10T11:49:07.095Z,16.4
2019-02-10T11:49:56.580Z,16.4
2019-02-10T11:50:47.269Z,16.4
2019-02-10T11:51:36.714Z,16.4
2019-02-10T11:52:27.329Z,16.4
2019-02-10T11:53:16.236Z,16.4
2019-02-10T11:54:07.209Z,16.4
2019-02-10T11:54:56.474Z,16.4
2019-02-10T11:55:47.549Z,16.4
2019-02-10T11:56:37.619Z,16.4
2019-02-10T11:57:26.824Z,16.3
2019-02-10T11:58:17.696Z,16.3
2019-02-10T11:59:22.381Z,16.2
2019-02-10T11:59:57.826Z,16.1
2019-02-10T12:00:47.934Z,16.1
2019-02-10T12:01:36.909Z,16.1
2019-02-10T12:02:27.914Z,16.1
2019-02-10T12:03:17.461Z,16.1
2019-02-10T12:04:47.460Z,16.2
2019-02-10T12:07:19.541Z,16.4
2019-02-10T12:08:09.048Z,16.5
2019-02-10T12:08:59.353Z,16.4
2019-02-10T12:10:18.801Z,16.4
2019-02-10T12:10:40.024Z,16.4
2019-02-10T12:11:44.478Z,16.5
2019-02-10T12:12:19.370Z,16.6
2019-02-10T12:13:10.165Z,16.6
2019-02-10T12:13:59.970Z,16.5
2019-02-10T12:14:50.348Z,16.6
2019-02-10T12:15:38.960Z,16.5
2019-02-10T12:16:28.498Z,16.5
2019-02-10T12:17:19.868Z,16.6
2019-02-10T12:18:10.020Z,16.5
2019-02-10T12:19:00.625Z,16.6
2019-02-10T12:19:49.295Z,16.6
2019-02-10T12:20:40.480Z,16.5
2019-02-10T12:21:29.381Z,16.5
2019-02-10T12:22:20.487Z,16.4
2019-02-10T12:23:25.287Z,16.4
2019-02-10T12:24:01.329Z,16.4
2019-02-10T12:24:50.488Z,16.4
2019-02-10T12:25:41.117Z,16.4
2019-02-10T12:26:30.317Z,16.4
2019-02-10T12:27:21.207Z,16.4
2019-02-10T12:28:10.153Z,16.4
2019-02-10T12:29:00.497Z,16.4
2019-02-10T12:29:50.537Z,16.4
2019-02-10T12:30:41.433Z,16.6
2019-02-10T12:31:31.262Z,16.6
2019-02-10T12:32:21.534Z,16.5
2019-02-10T12:33:11.446Z,16.4
2019-02-10T12:34:01.466Z,16.4
2019-02-10T12:34:52.096Z,16.6
2019-02-10T12:35:41.221Z,16.7
2019-02-10T12:36:32.334Z,16.7
2019-02-10T12:37:21.116Z,16.8
2019-02-10T12:38:11.170Z,16.8
2019-02-10T12:39:01.689Z,16.8
2019-02-10T12:39:59.447Z,16.8
2019-02-10T12:41:32.089Z,16.8
2019-02-10T12:42:20.926Z,16.8
2019-02-10T12:43:12.613Z,16.7
2019-02-10T12:44:01.894Z,16.6
2019-02-10T12:44:52.699Z,16.6
2019-02-10T12:45:42.496Z,16.6
2019-02-10T12:46:32.284Z,16.6
2019-02-10T12:47:22.290Z,16.5
2019-02-10T12:48:18.921Z,16.4
2019-02-10T12:49:02.179Z,16.4
2019-02-10T12:49:53.171Z,16.4
2019-02-10T12:50:41.990Z,16.5
2019-02-10T12:51:32.668Z,16.6
2019-02-10T12:52:21.858Z,16.6
2019-02-10T12:53:13.540Z,16.6
2019-02-10T12:54:02.219Z,16.6
2019-02-10T12:54:51.698Z,16.7
2019-02-10T12:55:43.175Z,16.6
2019-02-10T12:56:33.243Z,16.5
2019-02-10T12:57:22.212Z,16.5
2019-02-10T12:58:13.348Z,16.6
2019-02-10T12:59:02.587Z,16.7
2019-02-10T12:59:52.887Z,16.8
2019-02-10T13:00:45.086Z,16.8
2019-02-10T13:01:32.167Z,16.8
2019-02-10T13:02:22.530Z,16.8
2019-02-10T13:03:13.975Z,16.8
2019-02-10T13:04:04.117Z,16.8
2019-02-10T13:04:54.097Z,16.8
2019-02-10T13:05:42.571Z,16.8
2019-02-10T13:06:33.405Z,16.8
2019-02-10T13:07:22.867Z,16.7
2019-02-10T13:08:13.777Z,16.7
2019-02-10T13:09:03.917Z,16.6
2019-02-10T13:09:53.887Z,16.6
2019-02-10T13:10:43.104Z,16.6
2019-02-10T13:11:34.551Z,16.6
2019-02-10T13:12:23.788Z,16.6
2019-02-10T13:13:21.842Z,16.6
2019-02-10T13:14:04.157Z,16.6
2019-02-10T13:14:53.650Z,16.6
2019-02-10T13:15:44.289Z,16.7
2019-02-10T13:16:34.882Z,16.8
2019-02-10T13:17:24.766Z,16.8
2019-02-10T13:18:15.326Z,16.9
2019-02-10T13:19:04.811Z,16.9
2019-02-10T13:19:54.291Z,16.8
2019-02-10T13:20:44.379Z,16.8
2019-02-10T13:21:33.868Z,16.8
2019-02-10T13:22:24.851Z,16.8
2019-02-10T13:23:13.700Z,16.9
2019-02-10T13:24:06.624Z,16.9
2019-02-10T13:24:54.651Z,16.9
2019-02-10T13:25:45.546Z,16.9
2019-02-10T13:26:34.333Z,16.9
2019-02-10T13:27:24.550Z,16.9
2019-02-10T13:28:14.329Z,16.8
2019-02-10T13:29:05.829Z,16.9
2019-02-10T13:29:55.088Z,16.8
2019-02-10T13:30:45.918Z,16.8
2019-02-10T13:31:34.883Z,16.8
2019-02-10T13:32:25.501Z,16.7
2019-02-10T13:33:15.612Z,16.7
2019-02-10T13:34:05.168Z,16.6
2019-02-10T13:34:56.624Z,16.6
2019-02-10T13:35:45.678Z,16.6
2019-02-10T13:36:35.198Z,16.6
2019-02-10T13:37:25.268Z,16.6
2019-02-10T13:38:16.138Z,16.6
2019-02-10T13:39:05.442Z,16.6
2019-02-10T13:39:55.982Z,16.7
2019-02-10T13:40:46.045Z,16.8
2019-02-10T13:41:36.363Z,16.8
2019-02-10T13:42:25.605Z,16.8
2019-02-10T13:43:16.490Z,16.8
2019-02-10T13:44:05.780Z,16.7
2019-02-10T13:44:56.137Z,16.6
2019-02-10T13:45:45.082Z,16.7
2019-02-10T13:46:37.277Z,16.8
2019-02-10T13:47:27.367Z,16.8
2019-02-10T13:48:16.031Z,16.9
2019-02-10T13:49:06.344Z,16.9
2019-02-10T13:49:56.439Z,16.9
2019-02-10T13:50:46.175Z,16.9
2019-02-10T13:51:36.357Z,16.8
2019-02-10T13:52:25.454Z,16.8
2019-02-10T13:53:18.442Z,16.8
2019-02-10T13:54:07.241Z,16.8
2019-02-10T13:54:56.814Z,16.7
2019-02-10T13:55:47.674Z,16.7
2019-02-10T13:56:38.857Z,16.7
2019-02-10T13:57:26.775Z,16.7
2019-02-10T13:58:16.834Z,16.6
2019-02-10T13:59:07.654Z,16.6
2019-02-10T13:59:56.939Z,16.6
2019-02-10T14:00:47.439Z,16.5
2019-02-10T14:01:37.294Z,16.5
2019-02-10T14:02:27.592Z,16.6
2019-02-10T14:03:16.293Z,16.6
2019-02-10T14:04:07.458Z,16.6
2019-02-10T14:04:57.741Z,16.7
2019-02-10T14:05:48.334Z,16.8
2019-02-10T14:08:19.434Z,16.8
2019-02-10T14:09:11.123Z,16.7
2019-02-10T14:09:59.250Z,16.8
2019-02-10T14:10:49.686Z,16.8
2019-02-10T14:11:38.635Z,16.9
2019-02-10T14:12:28.941Z,16.9
2019-02-10T14:14:59.899Z,17.1
2019-02-10T14:15:49.660Z,17.1
2019-02-10T14:18:19.908Z,16.9
2019-02-10T14:19:09.475Z,16.9
2019-02-10T14:20:00.008Z,16.9
2019-02-10T14:20:49.435Z,16.8
2019-02-10T14:21:40.644Z,16.8
2019-02-10T14:22:29.687Z,16.8
2019-02-10T14:23:20.775Z,16.7
2019-02-10T14:24:11.094Z,16.7
2019-02-10T14:25:01.258Z,16.6
2019-02-10T14:25:49.533Z,16.6
2019-02-10T14:26:40.995Z,16.6
2019-02-10T14:27:29.652Z,16.6
2019-02-10T14:28:20.575Z,16.7
2019-02-10T14:29:12.741Z,16.8
2019-02-10T14:30:01.263Z,16.8
2019-02-10T14:30:50.717Z,16.9
2019-02-10T14:31:41.069Z,16.9
2019-02-10T14:32:30.882Z,16.8
2019-02-10T14:33:21.471Z,16.8